createdAt,value
2019-04-23T00:00:15.881Z,42.90
2019-04-23T00:02:56.704Z,42.90
2019-04-23T00:05:22.897Z,43.10
2019-04-23T00:07:49.786Z,43.20
2019-04-23T00:10:19.325Z,43.50
2019-04-23T00:12:49.529Z,43.60
2019-04-23T00:15:33.472Z,43.80
2019-04-23T00:17:48.471Z,43.80
2019-04-23T00:20:14.704Z,43.90
2019-04-23T00:23:25.503Z,44.10
2019-04-23T00:28:18.263Z,44.30
2019-04-23T00:30:50.000Z,44.70
2019-04-23T00:33:13.320Z,44.80
2019-04-23T00:35:41.732Z,45.00
2019-04-23T00:38:21.450Z,45.20
2019-04-23T00:43:20.826Z,45.50
2019-04-23T00:48:15.442Z,46.00
2019-04-23T00:50:53.069Z,46.20
2019-04-23T00:53:13.839Z,46.40
2019-04-23T00:55:46.808Z,46.60
2019-04-23T01:00:48.957Z,47.20
2019-04-23T01:03:15.413Z,47.30
2019-04-23T01:05:42.214Z,47.60
2019-04-23T01:10:59.782Z,47.80
2019-04-23T01:13:31.535Z,47.90
2019-04-23T01:15:53.680Z,48.00
2019-04-23T01:20:53.434Z,48.50
2019-04-23T01:23:20.682Z,48.50
2019-04-23T01:25:58.831Z,48.60
2019-04-23T01:31:18.170Z,49.10
2019-04-23T01:33:47.198Z,49.10
2019-04-23T01:36:25.335Z,49.10
2019-04-23T01:38:51.105Z,49.10
2019-04-23T01:41:13.249Z,49.20
2019-04-23T01:46:17.552Z,49.50
2019-04-23T01:48:50.269Z,49.90
2019-04-23T01:51:15.005Z,50.00
2019-04-23T01:53:45.680Z,50.10
2019-04-23T01:56:12.545Z,50.40
2019-04-23T01:58:44.091Z,50.80
2019-04-23T02:01:20.149Z,50.90
2019-04-23T02:03:47.003Z,51.00
2019-04-23T02:08:47.097Z,51.20
2019-04-23T02:11:11.810Z,51.30
2019-04-23T02:14:05.457Z,51.60
2019-04-23T02:16:21.434Z,51.60
2019-04-23T02:18:49.310Z,51.80
2019-04-23T02:21:38.432Z,51.80
2019-04-23T02:23:55.164Z,51.80
2019-04-23T02:26:33.309Z,51.90
2019-04-23T02:29:03.575Z,52.10
2019-04-23T02:36:32.557Z,52.40
2019-04-23T02:38:55.490Z,52.80
2019-04-23T02:41:41.404Z,53.10
2019-04-23T02:44:11.445Z,52.60
2019-04-23T02:46:25.022Z,52.60
2019-04-23T02:49:04.911Z,53.10
2019-04-23T02:59:11.125Z,53.10
2019-04-23T03:04:09.681Z,53.20
2019-04-23T03:06:38.488Z,53.50
2019-04-23T03:09:00.510Z,53.90
2019-04-23T03:14:09.435Z,54.30
2019-04-23T03:19:37.798Z,54.50
2019-04-23T03:29:49.080Z,55.30
2019-04-23T03:32:45.420Z,55.40
2019-04-23T03:37:17.022Z,55.20
2019-04-23T03:42:09.870Z,55.30
2019-04-23T03:44:49.722Z,55.40
2019-04-23T03:47:18.557Z,55.50
2019-04-23T03:52:25.383Z,55.60
2019-04-23T03:54:45.563Z,55.50
2019-04-23T03:59:44.695Z,56.00
2019-04-23T04:04:39.208Z,56.10
2019-04-23T04:07:18.567Z,56.20
2019-04-23T04:09:47.638Z,56.30
2019-04-23T04:12:27.411Z,56.50
2019-04-23T04:14:44.640Z,56.70
2019-04-23T04:17:15.986Z,57.00
2019-04-23T04:24:41.083Z,57.30
2019-04-23T04:27:12.409Z,57.50
2019-04-23T04:32:03.959Z,57.70
2019-04-23T04:35:09.031Z,57.70
2019-04-23T04:37:35.168Z,57.70
2019-04-23T04:40:07.164Z,58.00
2019-04-23T04:42:27.442Z,58.20
2019-04-23T04:45:08.572Z,58.50
2019-04-23T04:47:21.254Z,58.30
2019-04-23T04:49:53.329Z,58.50
2019-04-23T04:52:34.945Z,58.60
2019-04-23T04:54:39.780Z,58.80
2019-04-23T04:57:23.482Z,58.90
2019-04-23T04:59:54.050Z,58.70
2019-04-23T05:02:41.781Z,58.70
2019-04-23T05:05:16.851Z,58.90
2019-04-23T05:07:18.977Z,59.00
2019-04-23T05:10:08.465Z,59.00
2019-04-23T05:12:16.314Z,58.80
2019-04-23T05:14:52.826Z,58.90
2019-04-23T05:17:34.218Z,58.80
2019-04-23T05:22:20.872Z,59.00
2019-04-23T05:24:52.562Z,59.10
2019-04-23T05:27:17.672Z,59.20
2019-04-23T05:30:00.923Z,59.00
2019-04-23T05:32:25.160Z,59.20
2019-04-23T05:34:57.621Z,59.00
2019-04-23T05:37:50.611Z,59.10
2019-04-23T05:40:00.424Z,59.40
2019-04-23T05:42:26.132Z,59.30
2019-04-23T05:44:53.947Z,59.30
2019-04-23T05:47:27.414Z,59.10
2019-04-23T05:49:57.258Z,59.40
2019-04-23T05:52:24.180Z,59.20
2019-04-23T05:54:57.535Z,58.90
2019-04-23T05:57:20.712Z,58.90
2019-04-23T05:59:59.008Z,58.90
2019-04-23T06:02:29.005Z,58.70
2019-04-23T06:05:02.173Z,58.60
2019-04-23T06:09:59.431Z,58.40
2019-04-23T06:12:25.458Z,58.20
2019-04-23T06:14:57.568Z,58.10
2019-04-23T06:17:24.999Z,57.90
2019-04-23T06:20:07.207Z,57.90
2019-04-23T06:25:04.200Z,57.60
2019-04-23T06:27:27.330Z,57.60
2019-04-23T06:29:57.053Z,57.30
2019-04-23T06:34:56.675Z,57.20
2019-04-23T06:37:40.015Z,56.40
2019-04-23T06:40:00.341Z,57.00
2019-04-23T06:42:32.530Z,56.50
2019-04-23T06:44:59.584Z,56.70
2019-04-23T06:47:29.280Z,56.70
2019-04-23T06:49:58.429Z,56.20
2019-04-23T06:52:41.144Z,56.00
2019-04-23T06:55:03.261Z,55.80
2019-04-23T06:59:59.927Z,55.30
2019-04-23T07:02:35.747Z,55.60
2019-04-23T07:09:59.388Z,54.60
2019-04-23T07:12:36.396Z,54.40
2019-04-23T07:15:11.363Z,54.90
2019-04-23T07:17:30.743Z,54.90
2019-04-23T07:20:04.641Z,54.90
2019-04-23T07:22:26.458Z,54.40
2019-04-23T07:27:30.418Z,55.40
2019-04-23T07:30:11.505Z,55.00
2019-04-23T07:32:49.638Z,54.60
2019-04-23T07:35:08.316Z,54.30
2019-04-23T07:37:40.319Z,54.50
2019-04-23T07:40:27.530Z,54.70
2019-04-23T07:42:56.701Z,54.00
2019-04-23T07:45:44.866Z,53.10
2019-04-23T07:50:52.071Z,53.00
2019-04-23T07:55:57.146Z,52.80
2019-04-23T08:01:04.778Z,51.70
2019-04-23T08:03:40.089Z,52.30
2019-04-23T08:05:49.086Z,51.20
2019-04-23T08:08:16.823Z,51.20
2019-04-23T08:16:19.668Z,50.60
2019-04-23T08:18:36.809Z,51.30
2019-04-23T08:21:10.607Z,49.80
2019-04-23T08:23:55.567Z,50.00
2019-04-23T08:26:36.242Z,50.30
2019-04-23T08:29:06.473Z,49.40
2019-04-23T08:34:11.567Z,49.60
2019-04-23T08:36:34.251Z,49.60
2019-04-23T08:39:04.145Z,49.10
2019-04-23T08:41:44.589Z,49.00
2019-04-23T08:44:16.900Z,49.30
2019-04-23T08:46:56.971Z,48.20
2019-04-23T08:49:22.224Z,48.30
2019-04-23T08:51:53.338Z,48.50
2019-04-23T08:54:27.965Z,48.50
2019-04-23T08:56:55.045Z,48.10
2019-04-23T08:59:25.360Z,48.40
2019-04-23T09:02:03.642Z,47.90
2019-04-23T09:04:28.818Z,47.50
2019-04-23T09:06:55.950Z,47.20
2019-04-23T09:11:54.323Z,47.90
2019-04-23T09:14:08.922Z,46.90
2019-04-23T09:16:50.959Z,46.50
2019-04-23T09:19:21.633Z,45.90
2019-04-23T09:22:03.433Z,46.00
2019-04-23T09:24:24.238Z,45.50
2019-04-23T09:26:51.666Z,45.80
2019-04-23T09:29:36.640Z,45.00
2019-04-23T09:37:26.756Z,45.70
2019-04-23T09:40:04.837Z,44.00
2019-04-23T09:45:46.189Z,43.90
2019-04-23T09:53:17.151Z,43.80
2019-04-23T09:55:46.736Z,44.00
2019-04-23T09:58:08.222Z,43.60
2019-04-23T10:03:02.429Z,44.50
2019-04-23T10:05:29.154Z,44.50
2019-04-23T10:07:56.282Z,43.90
2019-04-23T10:10:18.452Z,44.50
2019-04-23T10:12:48.185Z,43.50
2019-04-23T10:15:24.369Z,42.70
2019-04-23T10:17:47.007Z,42.00
2019-04-23T10:20:16.392Z,41.70
2019-04-23T10:22:46.259Z,42.20
2019-04-23T10:25:15.314Z,42.10
2019-04-23T10:27:45.235Z,42.20
2019-04-23T10:30:14.475Z,41.30
2019-04-23T10:32:43.246Z,41.30
2019-04-23T10:35:22.170Z,40.80
2019-04-23T10:37:48.944Z,41.30
2019-04-23T10:40:17.608Z,41.40
2019-04-23T10:42:44.597Z,41.40
2019-04-23T10:45:28.963Z,41.30
2019-04-23T10:48:26.602Z,41.80
2019-04-23T10:53:29.986Z,41.80
2019-04-23T10:55:58.767Z,42.20
2019-04-23T10:58:27.935Z,41.40
2019-04-23T11:00:59.753Z,41.30
2019-04-23T11:03:42.168Z,41.30
2019-04-23T11:05:58.997Z,40.80
2019-04-23T11:08:25.605Z,41.20
2019-04-23T11:10:58.907Z,41.20
2019-04-23T11:13:31.979Z,41.80
2019-04-23T11:16:27.478Z,41.70
2019-04-23T11:18:40.047Z,41.10
2019-04-23T11:21:05.355Z,40.30
2019-04-23T11:23:29.108Z,39.60
2019-04-23T11:25:57.740Z,40.00
2019-04-23T11:28:36.284Z,40.90
2019-04-23T11:31:04.396Z,40.70
2019-04-23T11:33:40.142Z,39.50
2019-04-23T11:38:48.903Z,38.30
2019-04-23T11:41:09.068Z,38.10
2019-04-23T11:43:38.039Z,36.90
2019-04-23T11:49:07.012Z,35.70
2019-04-23T11:50:56.017Z,35.30
2019-04-23T11:51:41.127Z,35.10
2019-04-23T11:53:44.344Z,34.90
2019-04-23T11:56:12.171Z,36.10
2019-04-23T11:58:39.732Z,36.30
2019-04-23T12:01:38.703Z,36.10
2019-04-23T12:04:14.751Z,35.90
2019-04-23T12:06:44.433Z,35.80
2019-04-23T12:09:35.492Z,34.80
2019-04-23T12:12:10.754Z,33.60
2019-04-23T12:17:13.352Z,33.80
2019-04-23T12:22:15.121Z,33.10
2019-04-23T12:29:33.173Z,33.80
2019-04-23T12:32:35.481Z,33.80
2019-04-23T12:35:04.343Z,33.00
2019-04-23T12:37:28.643Z,33.70
2019-04-23T12:39:49.552Z,32.50
2019-04-23T12:42:44.866Z,31.70
2019-04-23T12:45:00.036Z,31.80
2019-04-23T12:47:37.942Z,31.70
2019-04-23T12:52:26.751Z,32.50
2019-04-23T12:59:51.595Z,33.40
2019-04-23T13:02:33.089Z,34.10
2019-04-23T13:04:52.399Z,34.40
2019-04-23T13:07:25.808Z,35.00
2019-04-23T13:12:39.980Z,35.10
2019-04-23T13:14:57.680Z,35.50
2019-04-23T13:18:04.752Z,35.40
2019-04-23T13:20:04.042Z,35.50
2019-04-23T13:22:31.559Z,35.70
2019-04-23T13:24:54.325Z,35.90
2019-04-23T13:27:38.431Z,35.30
2019-04-23T13:32:38.859Z,35.60
2019-04-23T13:35:11.179Z,35.40
2019-04-23T13:37:40.429Z,35.30
2019-04-23T13:40:00.518Z,35.40
2019-04-23T13:42:40.721Z,35.20
2019-04-23T13:45:05.462Z,35.10
2019-04-23T13:47:59.677Z,34.60
2019-04-23T13:50:07.447Z,35.10
2019-04-23T13:52:59.739Z,33.80
2019-04-23T14:00:24.756Z,33.30
2019-04-23T14:05:04.747Z,32.80
2019-04-23T14:07:41.839Z,33.40
2019-04-23T14:10:13.564Z,32.40
2019-04-23T14:12:41.556Z,32.10
2019-04-23T14:15:12.796Z,32.30
2019-04-23T14:20:15.275Z,32.70
2019-04-23T14:25:14.333Z,33.00
2019-04-23T14:27:49.511Z,33.10
2019-04-23T14:32:47.013Z,33.20
2019-04-23T14:35:21.696Z,33.20
2019-04-23T14:37:58.109Z,33.10
2019-04-23T14:40:20.046Z,33.50
2019-04-23T14:42:56.170Z,34.10
2019-04-23T14:48:00.738Z,34.70
2019-04-23T14:55:53.001Z,34.80
2019-04-23T14:58:00.394Z,35.40
2019-04-23T15:03:01.522Z,35.90
2019-04-23T15:05:27.547Z,36.50
2019-04-23T15:07:58.035Z,36.80
2019-04-23T15:13:00.042Z,37.60
2019-04-23T15:15:25.139Z,38.00
2019-04-23T15:17:55.621Z,38.30
2019-04-23T15:20:40.815Z,38.70
2019-04-23T15:23:25.609Z,38.50
2019-04-23T15:25:55.791Z,38.80
2019-04-23T15:30:38.808Z,39.10
2019-04-23T15:33:19.831Z,39.10
2019-04-23T15:41:02.615Z,39.00
2019-04-23T15:43:12.217Z,39.20
2019-04-23T15:45:44.509Z,39.50
2019-04-23T15:48:15.616Z,40.00
2019-04-23T15:50:46.907Z,40.60
2019-04-23T15:53:04.799Z,40.40
2019-04-23T15:55:44.680Z,40.90
2019-04-23T15:58:15.674Z,40.90
2019-04-23T16:00:42.832Z,41.20
2019-04-23T16:02:44.267Z,41.00
2019-04-23T16:05:15.174Z,41.40
2019-04-23T16:08:06.085Z,40.80
2019-04-23T16:10:52.380Z,40.80
2019-04-23T16:13:29.126Z,40.60
2019-04-23T16:15:48.161Z,40.60
2019-04-23T16:18:35.179Z,40.60
2019-04-23T16:21:02.026Z,40.10
2019-04-23T16:23:26.470Z,40.20
2019-04-23T16:25:58.460Z,40.50
2019-04-23T16:28:54.335Z,40.20
2019-04-23T16:31:03.284Z,40.30
2019-04-23T16:33:21.548Z,40.10
2019-04-23T16:36:19.235Z,39.80
2019-04-23T16:41:06.203Z,39.10
2019-04-23T16:43:35.419Z,37.80
2019-04-23T16:46:08.100Z,37.10
2019-04-23T16:48:40.600Z,36.50
2019-04-23T16:53:31.445Z,36.50
2019-04-23T16:56:13.583Z,36.10
2019-04-23T16:58:54.755Z,35.90
2019-04-23T17:01:08.568Z,36.40
2019-04-23T17:06:10.551Z,36.30
2019-04-23T17:08:52.592Z,36.20
2019-04-23T17:11:12.047Z,36.50
2019-04-23T17:16:15.384Z,36.90
2019-04-23T17:18:37.600Z,36.80
2019-04-23T17:21:07.433Z,36.80
2019-04-23T17:23:50.201Z,36.50
2019-04-23T17:26:13.648Z,37.00
2019-04-23T17:28:37.379Z,37.20
2019-04-23T17:33:43.490Z,37.80
2019-04-23T17:36:24.785Z,37.80
2019-04-23T17:41:20.554Z,38.40
2019-04-23T17:44:11.760Z,38.50
2019-04-23T17:46:32.321Z,38.70
2019-04-23T17:49:08.596Z,38.90
2019-04-23T17:51:28.136Z,39.40
2019-04-23T17:54:23.240Z,39.90
2019-04-23T17:59:08.252Z,41.10
2019-04-23T18:02:08.334Z,41.80
2019-04-23T18:04:15.904Z,42.50
2019-04-23T18:11:54.811Z,44.20
2019-04-23T18:14:08.380Z,44.50
2019-04-23T18:16:41.086Z,45.00
2019-04-23T18:19:10.263Z,45.40
2019-04-23T18:21:44.168Z,46.00
2019-04-23T18:24:27.477Z,46.30
2019-04-23T18:27:01.254Z,46.70
2019-04-23T18:29:34.362Z,47.10
2019-04-23T18:32:13.064Z,47.30
2019-04-23T18:35:06.579Z,47.60
2019-04-23T18:37:16.952Z,47.90
2019-04-23T18:39:47.014Z,48.50
2019-04-23T18:42:25.782Z,49.00
2019-04-23T18:44:54.072Z,48.90
2019-04-23T18:54:42.477Z,49.50
2019-04-23T19:02:24.066Z,50.30
2019-04-23T19:07:32.022Z,50.60
2019-04-23T19:10:11.025Z,50.40
2019-04-23T19:12:31.381Z,50.60
2019-04-23T19:15:01.686Z,50.70
2019-04-23T19:19:55.616Z,51.20
2019-04-23T19:22:27.306Z,51.90
2019-04-23T19:24:59.527Z,52.30
2019-04-23T19:29:58.385Z,52.10
2019-04-23T19:32:28.278Z,52.10
2019-04-23T19:34:52.940Z,52.00
2019-04-23T19:37:43.922Z,52.10
2019-04-23T19:39:52.718Z,52.40
2019-04-23T19:42:36.521Z,52.50
2019-04-23T19:44:57.875Z,52.30
2019-04-23T19:47:38.538Z,52.30
2019-04-23T19:50:01.669Z,52.50
2019-04-23T19:52:52.349Z,52.70
2019-04-23T19:54:58.790Z,52.60
2019-04-23T19:57:33.818Z,52.70
2019-04-23T19:59:55.261Z,52.60
2019-04-23T20:02:48.133Z,52.70
2019-04-23T20:05:15.559Z,52.90
2019-04-23T20:07:43.214Z,52.80
2019-04-23T20:14:56.249Z,52.90
2019-04-23T20:17:37.779Z,52.90
2019-04-23T20:20:19.703Z,53.00
2019-04-23T20:22:43.458Z,53.30
2019-04-23T20:27:33.660Z,53.40
2019-04-23T20:30:37.623Z,53.60
2019-04-23T20:33:37.766Z,53.60
2019-04-23T20:35:24.335Z,53.90
2019-04-23T20:38:19.018Z,54.10
2019-04-23T20:40:30.540Z,54.30
2019-04-23T20:42:52.886Z,54.30
2019-04-23T20:45:28.746Z,54.40
2019-04-23T20:50:27.728Z,54.80
2019-04-23T20:52:52.883Z,55.10
2019-04-23T20:55:38.743Z,55.40
2019-04-23T20:58:09.442Z,55.70
2019-04-23T21:00:52.824Z,56.10
2019-04-23T21:03:45.571Z,56.10
2019-04-23T21:05:49.990Z,56.70
2019-04-23T21:08:29.788Z,56.70
2019-04-23T21:13:44.779Z,57.30
2019-04-23T21:16:05.053Z,57.50
2019-04-23T21:18:33.034Z,57.50
2019-04-23T21:20:54.297Z,57.80
2019-04-23T21:23:21.249Z,58.00
2019-04-23T21:28:35.936Z,58.50
2019-04-23T21:33:33.810Z,59.10
2019-04-23T21:36:13.448Z,59.90
2019-04-23T21:41:50.936Z,61.10
2019-04-23T21:44:18.759Z,61.40
2019-04-23T21:46:47.983Z,61.90
2019-04-23T21:49:18.030Z,62.20
2019-04-23T21:56:44.480Z,63.30
2019-04-23T21:59:21.071Z,63.50
2019-04-23T22:01:43.584Z,64.20
2019-04-23T22:04:23.083Z,64.90
2019-04-23T22:12:02.507Z,65.20
2019-04-23T22:16:55.391Z,65.30
2019-04-23T22:21:50.235Z,64.90
2019-04-23T22:24:10.360Z,64.70
2019-04-23T22:29:18.365Z,65.00
2019-04-23T22:31:47.141Z,64.90
2019-04-23T22:37:01.866Z,65.50
2019-04-23T22:39:17.685Z,66.30
2019-04-23T22:41:58.243Z,66.00
2019-04-23T22:54:41.905Z,68.30
2019-04-23T22:56:54.303Z,68.90
2019-04-23T22:59:32.692Z,68.90
2019-04-23T23:01:59.152Z,69.50
2019-04-23T23:04:31.118Z,70.00
2019-04-23T23:07:04.911Z,72.00
2019-04-23T23:12:07.712Z,72.90
2019-04-23T23:14:27.997Z,73.20
2019-04-23T23:16:56.773Z,74.00
2019-04-23T23:20:01.047Z,74.40
2019-04-23T23:22:01.983Z,75.30
2019-04-23T23:24:27.767Z,76.40
2019-04-23T23:27:00.473Z,76.80
2019-04-23T23:29:28.303Z,77.20
2019-04-23T23:32:00.251Z,77.90
2019-04-23T23:34:41.811Z,79.20
2019-04-23T23:39:41.274Z,82.10
2019-04-23T23:42:07.394Z,84.40
2019-04-23T23:44:45.247Z,86.30
2019-04-23T23:47:09.038Z,88.10
2019-04-23T23:49:36.285Z,89.60
2019-04-23T23:51:57.664Z,90.20
2019-04-23T23:54:26.637Z,91.00
2019-04-23T23:57:04.006Z,91.60
